Denton, TX

8:04 PM CDT on August 28, 2015 (GMT -0500)
UNT area | | Change Station
CLOSE
Current Station
Personal Weather Station
Location: Denton, TX
Elevation: 705 ft
Nearby Weather Stations

Elev 705 ft 33.22 °N, 97.15 °W | Updated 10 seconds ago

Partly Cloudy
Partly Cloudy
90.0 °F
Feels Like 91 °F
N
2.2
Wind Variable Wind from SE
Gusts 3.8 mph

Today
High -- | Low -- °F
--% Chance of Precip.
Yesterday
High -- | Low -- °F
Precip. -- in
7:00 AM 7:59 PM
Waxing Gibbous, 99% visible
Pressure 29.89 in
Visibility 10.0 miles
Clouds Clear
Heat Index 91 °F
Dew Point 64 °F
Humidity 42%
Rainfall 0.00 in
Snow Depth Not available.
UV 0 out of 12
Pollen 8.10 out of 12
Air Quality Not available.
Flu Activity Not available.
METAR KDTO 290053Z 13005KT 10SM CLR 32/17 A2991 RMK AO2 SLP120 T03220172
Pressure 29.89 in
Visibility 10.0 miles
Clouds Clear
Heat Index 91 °F
Dew Point 64 °F
Humidity 42%
Rainfall 0.00 in
Snow Depth Not available.
UV 0 out of 12
Pollen 8.10 out of 12
Air Quality Not available.
Flu Activity Not available.
METAR KDTO 290053Z 13005KT 10SM CLR 32/17 A2991 RMK AO2 SLP120 T03220172

10-Day Weather Forecast

×

Almanac

Astronomy

Aug. 28, 2015 Rise Set
Actual Time
Civil Twilight
Nautical Twilight
Astronomical Twilight
Moon
Length of Visible Light
Length of Day
Tomorrow will be .
, % of the Moon is Illuminated

Today's Extremes

State Highs State Lows

Community

WunderPhotos

Upload Photos

1,850,557 photos uploaded!

WunderBlogs® & News

Nearby

Air Quality

  Air Quality AQ Index Pollutant
Not available.

Snow Depth

Station Depth Elevation

Earthquake Activity

City Distance Mag. Time & Date
Minimum magnitude displayed is 2.5.

Coastal Water Temperatures

Place Temperature

Stations

Nearby Weather Stations

Station Location Temp. Windchill Dew Point Humidity Wind Precip. Elev Updated Type